Time;durP1;ratioP1;P1;durP2;ratioP2;P2;SDS_P1;SDS_P2;PMS_P1;PMS_P2;Temp;Humidity;BMP_temperature;BMP_pressure;BME280_temperature;BME280_humidity;BME280_pressure;Samples;Min_cycle;Max_cycle;Signal;HPM_P1;HPM_P2
2023/04/23 00:00:37;;;;;;;4.97;1.35;;;;;;;-143.29;100.00;62188.47;4897085;29;20912;-80
2023/04/23 00:03:11;;;;;;;5.70;1.58;;;;;;;-143.29;100.00;62188.47;4896966;29;20032;-80
2023/04/23 00:05:37;;;;;;;3.05;1.17;;;;;;;-143.29;100.00;62188.47;4896707;29;20376;-80
2023/04/23 00:08:03;;;;;;;3.10;1.02;;;;;;;-143.29;100.00;62188.47;4896861;29;20036;-80
2023/04/23 00:10:29;;;;;;;5.45;1.20;;;;;;;-143.29;100.00;62188.47;4896988;29;20137;-80
2023/04/23 00:12:54;;;;;;;3.58;1.20;;;;;;;-143.29;100.00;62188.47;4896923;29;20507;-79
2023/04/23 00:15:21;;;;;;;4.05;1.20;;;;;;;-143.29;100.00;62188.47;4897032;29;20028;-80
2023/04/23 00:17:47;;;;;;;7.93;1.30;;;;;;;-143.29;100.00;62188.47;4896661;29;20032;-80
2023/04/23 00:20:12;;;;;;;3.65;1.30;;;;;;;-143.29;100.00;62188.47;4896658;29;20064;-80
2023/04/23 00:22:38;;;;;;;5.13;1.13;;;;;;;-143.29;100.00;62188.47;4896691;29;20115;-80
2023/04/23 00:25:04;;;;;;;3.10;1.20;;;;;;;-143.29;100.00;62188.47;4896650;29;20027;-80
2023/04/23 00:27:29;;;;;;;2.55;1.10;;;;;;;-143.29;100.00;62188.47;4896597;29;20088;-79
2023/04/23 00:29:55;;;;;;;2.35;1.33;;;;;;;-143.29;100.00;62188.47;4896915;29;20028;-80
2023/04/23 00:32:21;;;;;;;5.00;1.08;;;;;;;-143.29;100.00;62188.47;4896786;29;20458;-80
2023/04/23 00:34:48;;;;;;;3.83;1.20;;;;;;;-143.29;100.00;62188.47;4896630;29;20518;-80
2023/04/23 00:37:13;;;;;;;3.88;0.90;;;;;;;-143.29;100.00;62188.47;4896814;29;20624;-80
2023/04/23 00:39:39;;;;;;;3.50;1.33;;;;;;;-143.29;100.00;62188.47;4900197;29;20024;-79
2023/04/23 00:42:11;;;;;;;4.55;1.33;;;;;;;-143.29;100.00;62188.47;4900545;29;20489;-80
2023/04/23 00:44:37;;;;;;;2.20;0.95;;;;;;;-143.29;100.00;62188.47;4900428;29;20468;-80
2023/04/23 00:47:03;;;;;;;1.98;0.93;;;;;;;-143.29;100.00;62188.47;4899165;29;20032;-80
2023/04/23 00:49:28;;;;;;;4.07;1.00;;;;;;;-143.29;100.00;62188.47;4900112;29;20382;-80
2023/04/23 00:51:54;;;;;;;2.08;0.95;;;;;;;-143.29;100.00;62188.47;4900398;29;20525;-80
2023/04/23 00:54:20;;;;;;;3.67;1.48;;;;;;;-143.29;100.00;62188.47;4900398;29;20027;-80
2023/04/23 00:56:47;;;;;;;2.83;1.00;;;;;;;-143.29;100.00;62188.47;4900275;29;20025;-80
2023/04/23 00:59:13;;;;;;;3.30;1.48;;;;;;;-143.29;100.00;62188.47;4900151;29;20029;-80
2023/04/23 01:01:39;;;;;;;2.15;1.50;;;;;;;-143.29;100.00;62188.47;4900079;29;20033;-80
2023/04/23 01:04:05;;;;;;;2.10;1.45;;;;;;;-143.29;100.00;62188.47;4900030;29;20100;-80
2023/04/23 01:06:30;;;;;;;2.05;1.27;;;;;;;-143.29;100.00;62188.47;4899958;29;20471;-80
2023/04/23 01:08:56;;;;;;;2.10;1.30;;;;;;;-143.29;100.00;62188.47;4900191;29;20036;-80
2023/04/23 01:11:22;;;;;;;1.88;1.30;;;;;;;-143.29;100.00;62188.47;4899970;29;20550;-79
2023/04/23 01:13:47;;;;;;;3.13;1.48;;;;;;;-143.29;100.00;62188.47;4899847;29;20044;-80
2023/04/23 01:16:13;;;;;;;2.47;1.60;;;;;;;-143.29;100.00;62188.47;4899698;29;20476;-80
2023/04/23 01:18:39;;;;;;;2.40;1.70;;;;;;;-143.29;100.00;62188.47;4899801;29;20032;-80
2023/04/23 01:21:06;;;;;;;2.85;1.27;;;;;;;-143.29;100.00;62188.47;4899698;29;20029;-80
2023/04/23 01:23:31;;;;;;;2.33;1.60;;;;;;;-143.29;100.00;62188.47;4899789;29;20028;-79
2023/04/23 01:25:57;;;;;;;1.85;1.48;;;;;;;-143.29;100.00;62188.47;4899693;29;20079;-80
2023/04/23 01:28:23;;;;;;;2.00;1.20;;;;;;;-143.29;100.00;62188.47;4899731;29;20123;-80
2023/04/23 01:30:49;;;;;;;2.47;1.75;;;;;;;-143.29;100.00;62188.47;4899535;29;20084;-80
2023/04/23 01:33:15;;;;;;;2.30;1.02;;;;;;;-143.29;100.00;62188.47;4899554;29;20028;-80
2023/04/23 01:35:42;;;;;;;2.30;1.45;;;;;;;-143.29;100.00;62188.47;4899652;29;20055;-79
2023/04/23 01:38:09;;;;;;;2.38;1.42;;;;;;;-143.29;100.00;62188.47;4899487;29;20093;-80
2023/04/23 01:40:36;;;;;;;2.42;1.65;;;;;;;-143.29;100.00;62188.47;4899470;29;20036;-80
2023/04/23 01:43:01;;;;;;;1.80;1.50;;;;;;;-143.29;100.00;62188.47;4899441;29;20494;-80
2023/04/23 01:45:26;;;;;;;1.63;1.30;;;;;;;-143.29;100.00;62188.47;4899284;29;20032;-79
2023/04/23 01:47:52;;;;;;;3.67;1.70;;;;;;;-143.29;100.00;62188.47;4899296;29;20418;-80
2023/04/23 01:50:20;;;;;;;2.47;1.92;;;;;;;-143.29;100.00;62188.47;4899158;29;20072;-79
2023/04/23 01:52:46;;;;;;;2.78;1.90;;;;;;;-143.29;100.00;62188.47;4899183;29;20474;-79
2023/04/23 01:55:11;;;;;;;1.85;1.52;;;;;;;-143.29;100.00;62188.47;4899229;29;20033;-80
2023/04/23 01:57:37;;;;;;;2.67;1.90;;;;;;;-143.29;100.00;62188.47;4899358;29;20067;-80
2023/04/23 02:00:10;;;;;;;3.00;2.38;;;;;;;-143.29;100.00;62188.47;4904256;29;20025;-80
2023/04/23 02:02:36;;;;;;;2.38;2.05;;;;;;;-143.29;100.00;62188.47;4898513;29;20085;-80
2023/04/23 02:05:03;;;;;;;2.45;2.13;;;;;;;-143.29;100.00;62188.47;4898964;29;20064;-80
2023/04/23 02:07:32;;;;;;;2.20;1.83;;;;;;;-143.29;100.00;62188.47;4899027;29;20035;-80
2023/04/23 02:09:58;;;;;;;4.38;2.72;;;;;;;-143.29;100.00;62188.47;4899098;29;20036;-80
2023/04/23 02:12:24;;;;;;;2.80;2.17;;;;;;;-143.29;100.00;62188.47;4898848;29;20145;-80
2023/04/23 02:14:50;;;;;;;2.75;2.40;;;;;;;-143.29;100.00;62188.47;4898880;29;20029;-79
2023/04/23 02:17:15;;;;;;;2.55;2.13;;;;;;;-143.29;100.00;62188.47;4898697;29;20028;-80
2023/04/23 02:19:42;;;;;;;2.65;2.17;;;;;;;-143.29;100.00;62188.47;4898892;29;20045;-80
2023/04/23 02:22:08;;;;;;;2.90;2.15;;;;;;;-143.29;100.00;62188.47;4898669;29;20028;-79
2023/04/23 02:24:33;;;;;;;4.05;2.60;;;;;;;-143.29;100.00;62188.47;4898604;29;20084;-80
2023/04/23 02:26:58;;;;;;;3.72;2.38;;;;;;;-143.29;100.00;62188.47;4898486;29;20028;-80
2023/04/23 02:29:24;;;;;;;2.53;2.00;;;;;;;-143.29;100.00;62188.47;4898630;29;20025;-80
2023/04/23 02:31:49;;;;;;;2.58;2.10;;;;;;;-143.29;100.00;62188.47;4898325;29;20036;-79
2023/04/23 02:34:14;;;;;;;2.88;2.25;;;;;;;-143.29;100.00;62188.47;4897062;29;20028;-80
2023/04/23 02:36:40;;;;;;;2.67;2.28;;;;;;;-143.29;100.00;62188.47;4898494;29;20032;-79
2023/04/23 02:39:05;;;;;;;2.50;2.05;;;;;;;-143.29;100.00;62188.47;4898328;29;20033;-79
2023/04/23 02:41:31;;;;;;;2.60;2.40;;;;;;;-143.29;100.00;62188.47;4898405;29;20032;-79
2023/04/23 02:43:56;;;;;;;2.60;2.00;;;;;;;-143.29;100.00;62188.47;4898848;29;20440;-80
2023/04/23 02:46:22;;;;;;;3.00;2.35;;;;;;;-143.29;100.00;62188.47;4898564;29;20036;-80
2023/04/23 02:48:47;;;;;;;3.53;2.35;;;;;;;-143.29;100.00;62188.47;4898151;29;20036;-79
2023/04/23 02:51:13;;;;;;;3.53;2.83;;;;;;;-143.29;100.00;62188.47;4896809;29;20033;-80
2023/04/23 02:53:39;;;;;;;3.05;2.55;;;;;;;-143.29;100.00;62188.47;4898136;29;20028;-79
2023/04/23 02:56:04;;;;;;;3.00;2.67;;;;;;;-143.29;100.00;62188.47;4898219;29;20369;-79
2023/04/23 02:58:30;;;;;;;2.88;2.47;;;;;;;-143.29;100.00;62188.47;4897992;29;20127;-80
2023/04/23 03:00:56;;;;;;;2.55;2.35;;;;;;;-143.29;100.00;62188.47;4897308;29;20044;-80
2023/04/23 03:03:25;;;;;;;3.15;2.60;;;;;;;-143.29;100.00;62188.47;4897993;29;20383;-80
2023/04/23 03:05:50;;;;;;;2.63;2.30;;;;;;;-143.29;100.00;62188.47;4897800;29;20040;-79
2023/04/23 03:08:16;;;;;;;3.90;2.58;;;;;;;-143.29;100.00;62188.47;4897811;29;20024;-80
2023/04/23 03:10:41;;;;;;;2.95;2.65;;;;;;;-143.29;100.00;62188.47;4897877;29;20108;-80
2023/04/23 03:13:06;;;;;;;2.88;2.33;;;;;;;-143.29;100.00;62188.47;4897552;29;20036;-79
2023/04/23 03:15:32;;;;;;;3.60;2.53;;;;;;;-143.29;100.00;62188.47;4897818;29;20020;-79
2023/04/23 03:17:58;;;;;;;2.47;2.17;;;;;;;-143.29;100.00;62188.47;4897652;29;20028;-79
2023/04/23 03:20:23;;;;;;;3.60;2.67;;;;;;;-143.29;100.00;62188.47;4897494;29;20024;-79
2023/04/23 03:22:48;;;;;;;3.53;2.90;;;;;;;-143.29;100.00;62188.47;4897455;29;20119;-79
2023/04/23 03:25:14;;;;;;;4.53;3.30;;;;;;;-143.29;100.00;62188.47;4897580;29;20055;-80
2023/04/23 03:27:39;;;;;;;3.17;2.72;;;;;;;-143.29;100.00;62188.47;4897456;29;20428;-79
2023/04/23 03:30:07;;;;;;;4.38;3.17;;;;;;;-143.29;100.00;62188.47;4897405;29;20029;-80
2023/04/23 03:32:33;;;;;;;3.55;3.25;;;;;;;-143.29;100.00;62188.47;4897607;29;20424;-80
2023/04/23 03:34:58;;;;;;;3.20;2.90;;;;;;;-143.29;100.00;62188.47;4897227;29;20032;-79
2023/04/23 03:37:24;;;;;;;4.10;3.17;;;;;;;-143.29;100.00;62188.47;4897242;29;20079;-80
2023/04/23 03:39:50;;;;;;;2.88;2.53;;;;;;;-143.29;100.00;62188.47;4897272;29;20032;-80
2023/04/23 03:42:15;;;;;;;5.07;2.90;;;;;;;-143.29;100.00;62188.47;4897201;29;20024;-79
2023/04/23 03:44:40;;;;;;;3.58;3.15;;;;;;;-143.29;100.00;62188.47;4896945;29;20020;-80
2023/04/23 03:47:06;;;;;;;3.78;3.38;;;;;;;-143.29;100.00;62188.47;4897240;29;20021;-79
2023/04/23 03:49:31;;;;;;;3.85;2.92;;;;;;;-143.29;100.00;62188.47;4897300;29;20028;-79
2023/04/23 03:51:56;;;;;;;3.67;2.90;;;;;;;-143.29;100.00;62188.47;4897234;29;20360;-79
2023/04/23 03:54:23;;;;;;;4.05;3.42;;;;;;;-143.29;100.00;62188.47;4895805;29;20064;-79
2023/04/23 03:56:48;;;;;;;3.10;2.80;;;;;;;-143.29;100.00;62188.47;4896979;29;20107;-80
2023/04/23 03:59:14;;;;;;;3.70;3.20;;;;;;;-143.29;100.00;62188.47;4896669;29;20111;-80
2023/04/23 04:01:39;;;;;;;3.70;2.90;;;;;;;-143.29;100.00;62188.47;4897042;29;20037;-80
2023/04/23 04:04:05;;;;;;;4.00;2.90;;;;;;;-143.29;100.00;62188.47;4895886;29;20032;-79
2023/04/23 04:06:30;;;;;;;4.05;3.13;;;;;;;-143.29;100.00;62188.47;4897140;29;20033;-79
2023/04/23 04:08:55;;;;;;;3.92;3.33;;;;;;;-143.29;100.00;62188.47;4895715;29;20444;-79
2023/04/23 04:11:21;;;;;;;4.38;3.40;;;;;;;-143.29;100.00;62188.47;4896931;29;20064;-80
2023/04/23 04:13:46;;;;;;;3.55;3.05;;;;;;;-143.29;100.00;62188.47;4895757;29;20028;-79
2023/04/23 04:16:11;;;;;;;4.03;2.90;;;;;;;-143.29;100.00;62188.47;4896987;29;20032;-80
2023/04/23 04:18:38;;;;;;;5.20;3.33;;;;;;;-143.29;100.00;62188.47;4896835;29;20047;-79
2023/04/23 04:21:03;;;;;;;3.40;3.10;;;;;;;-143.29;100.00;62188.47;4896611;29;20084;-79
2023/04/23 04:23:29;;;;;;;3.22;2.92;;;;;;;-143.29;100.00;62188.47;4896764;29;20028;-79
2023/04/23 04:25:56;;;;;;;3.20;2.67;;;;;;;-143.29;100.00;62188.47;4896709;29;20064;-80
2023/04/23 04:28:24;;;;;;;3.58;2.97;;;;;;;-143.29;100.00;62188.47;4896517;29;20483;-80
2023/04/23 04:30:50;;;;;;;3.42;2.83;;;;;;;-143.29;100.00;62188.47;4896703;29;20039;-80
2023/04/23 04:33:15;;;;;;;3.50;2.97;;;;;;;-143.29;100.00;62188.47;4896675;29;20025;-80
2023/04/23 04:35:41;;;;;;;3.42;2.97;;;;;;;-143.29;100.00;62188.47;4896801;29;20029;-79
2023/04/23 04:38:07;;;;;;;3.70;3.20;;;;;;;-143.29;100.00;62188.47;4896630;29;20025;-80
2023/04/23 04:40:33;;;;;;;3.63;3.17;;;;;;;-143.29;100.00;62188.47;4896969;29;20486;-80
2023/04/23 04:42:59;;;;;;;3.80;3.50;;;;;;;-143.29;100.00;62188.47;4896413;29;20498;-80
2023/04/23 04:45:24;;;;;;;3.35;2.85;;;;;;;-143.29;100.00;62188.47;4896635;29;20029;-79
2023/04/23 04:47:51;;;;;;;3.67;2.90;;;;;;;-143.29;100.00;62188.47;4896753;29;20171;-79
2023/04/23 04:50:16;;;;;;;4.10;3.22;;;;;;;-143.29;100.00;62188.47;4896243;29;20480;-80
2023/04/23 04:52:41;;;;;;;3.45;2.83;;;;;;;-143.29;100.00;62188.47;4896617;29;20088;-80
2023/04/23 04:55:07;;;;;;;3.40;2.78;;;;;;;-143.29;100.00;62188.47;4896686;29;20043;-80
2023/04/23 04:57:33;;;;;;;3.83;3.42;;;;;;;-143.29;100.00;62188.47;4896376;29;20506;-80
2023/04/23 05:00:03;;;;;;;3.78;2.83;;;;;;;-143.29;100.00;62188.47;4896569;29;20510;-79
2023/04/23 05:02:29;;;;;;;3.50;3.05;;;;;;;-143.29;100.00;62188.47;4896239;29;20032;-80
2023/04/23 05:04:54;;;;;;;4.25;3.58;;;;;;;-143.29;100.00;62188.47;4896502;29;20103;-80
2023/04/23 05:07:19;;;;;;;4.38;3.00;;;;;;;-143.29;100.00;62188.47;4896370;29;20035;-80
2023/04/23 05:09:45;;;;;;;3.72;3.20;;;;;;;-143.29;100.00;62188.47;4896180;29;20468;-80
2023/04/23 05:12:11;;;;;;;4.10;3.53;;;;;;;-143.29;100.00;62188.47;4896337;29;20539;-79
2023/04/23 05:14:36;;;;;;;4.88;3.42;;;;;;;-143.29;100.00;62188.47;4896354;29;20456;-80
2023/04/23 05:17:01;;;;;;;3.70;3.05;;;;;;;-143.29;100.00;62188.47;4896278;29;20052;-80
2023/04/23 05:19:27;;;;;;;3.42;2.80;;;;;;;-143.29;100.00;62188.47;4896358;29;20041;-79
2023/04/23 05:21:52;;;;;;;4.03;3.22;;;;;;;-143.29;100.00;62188.47;4896033;29;20383;-80
2023/04/23 05:24:17;;;;;;;3.63;3.03;;;;;;;-143.29;100.00;62188.47;4897551;29;20036;-80
2023/04/23 05:26:43;;;;;;;4.55;4.00;;;;;;;-143.29;100.00;62188.47;4899722;29;20021;-80
2023/04/23 05:29:08;;;;;;;4.68;4.05;;;;;;;-143.29;100.00;62188.47;4899626;29;20387;-79
2023/04/23 05:31:33;;;;;;;4.57;3.70;;;;;;;-143.29;100.00;62188.47;4899573;29;20039;-80
2023/04/23 05:33:59;;;;;;;4.40;3.72;;;;;;;-143.29;100.00;62188.47;4899527;29;20033;-80
2023/04/23 05:36:24;;;;;;;4.78;4.28;;;;;;;-143.29;100.00;62188.47;4899616;29;20032;-80
2023/04/23 05:38:50;;;;;;;4.13;3.33;;;;;;;-143.29;100.00;62188.47;4899410;29;20020;-79
2023/04/23 05:41:15;;;;;;;4.97;4.28;;;;;;;-143.29;100.00;62188.47;4899300;29;20032;-80
2023/04/23 05:43:40;;;;;;;4.05;3.47;;;;;;;-143.29;100.00;62188.47;4899676;29;20107;-80
2023/04/23 05:46:06;;;;;;;3.53;3.22;;;;;;;-143.29;100.00;62188.47;4899418;29;20031;-80
2023/04/23 05:48:32;;;;;;;4.07;3.33;;;;;;;-143.29;100.00;62188.47;4899282;29;20044;-80
2023/04/23 05:50:58;;;;;;;5.53;3.42;;;;;;;-143.29;100.00;62188.47;4899397;29;20063;-80
2023/04/23 05:53:23;;;;;;;3.92;3.53;;;;;;;-143.29;100.00;62188.47;4899225;29;20032;-80
2023/04/23 05:55:48;;;;;;;3.67;3.22;;;;;;;-143.29;100.00;62188.47;4899242;29;20115;-80
2023/04/23 05:58:14;;;;;;;7.20;3.17;;;;;;;-143.29;100.00;62188.47;4899086;29;20027;-80
2023/04/23 06:00:40;;;;;;;3.60;3.20;;;;;;;-143.29;100.00;62188.47;4898879;29;20029;-80
2023/04/23 06:03:06;;;;;;;3.33;2.97;;;;;;;-143.29;100.00;62188.47;4899071;29;20060;-80
2023/04/23 06:05:31;;;;;;;4.03;3.00;;;;;;;-143.29;100.00;62188.47;4899220;29;20039;-80
2023/04/23 06:07:57;;;;;;;3.60;3.10;;;;;;;-143.29;100.00;62188.47;4898992;29;20036;-80
2023/04/23 06:10:22;;;;;;;3.42;2.92;;;;;;;-143.29;100.00;62188.47;4898752;29;20080;-80
2023/04/23 06:12:48;;;;;;;3.95;3.22;;;;;;;-143.29;100.00;62188.47;4898949;29;20032;-79
2023/04/23 06:15:13;;;;;;;4.15;3.42;;;;;;;-143.29;100.00;62188.47;4898834;29;20032;-80
2023/04/23 06:17:39;;;;;;;4.15;3.42;;;;;;;-143.29;100.00;62188.47;4898774;29;20040;-80
2023/04/23 06:20:05;;;;;;;3.95;3.00;;;;;;;-143.29;100.00;62188.47;4898879;29;20029;-80
2023/04/23 06:22:31;;;;;;;3.30;2.92;;;;;;;-143.29;100.00;62188.47;4898688;29;20088;-80
2023/04/23 06:24:56;;;;;;;3.92;3.38;;;;;;;-143.29;100.00;62188.47;4898597;29;20035;-80
2023/04/23 06:27:22;;;;;;;4.72;3.72;;;;;;;-143.29;100.00;62188.47;4898687;29;20025;-80
2023/04/23 06:29:47;;;;;;;3.90;3.10;;;;;;;-143.29;100.00;62188.47;4898901;29;20376;-80
2023/04/23 06:32:12;;;;;;;3.75;3.15;;;;;;;-143.29;100.00;62188.47;4898560;29;20505;-80
2023/04/23 06:34:38;;;;;;;4.40;3.22;;;;;;;-143.29;100.00;62188.47;4898548;29;20036;-80
2023/04/23 06:37:03;;;;;;;4.13;3.33;;;;;;;-143.29;100.00;62188.47;4897536;29;20045;-79
2023/04/23 06:39:28;;;;;;;3.35;2.95;;;;;;;-143.29;100.00;62188.47;4898537;29;20471;-80
2023/04/23 06:41:55;;;;;;;5.15;3.38;;;;;;;-143.29;100.00;62188.47;4898266;29;20394;-80
2023/04/23 06:44:20;;;;;;;3.92;3.50;;;;;;;-143.29;100.00;62188.47;4898347;29;20051;-80
2023/04/23 06:46:45;;;;;;;3.55;3.08;;;;;;;-143.29;100.00;62188.47;4898357;29;20489;-80
2023/04/23 06:49:11;;;;;;;5.13;3.35;;;;;;;-143.29;100.00;62188.47;4897974;29;20032;-80
2023/04/23 06:51:36;;;;;;;3.88;3.40;;;;;;;-143.29;100.00;62188.47;4898241;29;20035;-79
2023/04/23 06:54:02;;;;;;;4.20;3.30;;;;;;;-143.29;100.00;62188.47;4898170;29;20036;-80
2023/04/23 06:56:27;;;;;;;4.13;3.17;;;;;;;-143.29;100.00;62188.47;4898083;29;20029;-80
2023/04/23 06:58:52;;;;;;;4.35;3.35;;;;;;;-143.29;100.00;62188.47;4897997;29;20023;-80
2023/04/23 07:01:18;;;;;;;4.28;3.55;;;;;;;-143.29;100.00;62188.47;4897981;29;20028;-80
2023/04/23 07:03:47;;;;;;;3.03;2.67;;;;;;;-143.29;100.00;62188.47;4896739;29;20032;-79
2023/04/23 07:06:14;;;;;;;6.35;3.10;;;;;;;-143.29;100.00;62188.47;4897855;29;20032;-80
2023/04/23 07:08:40;;;;;;;4.25;3.53;;;;;;;-143.29;100.00;62188.47;4897581;29;20032;-80
2023/04/23 07:11:05;;;;;;;4.70;3.30;;;;;;;-143.29;100.00;62188.47;4897717;29;20037;-80
2023/04/23 07:13:31;;;;;;;3.53;3.10;;;;;;;-143.29;100.00;62188.47;4898007;29;20083;-80
2023/04/23 07:15:56;;;;;;;3.80;3.03;;;;;;;-143.29;100.00;62188.47;4897835;29;20060;-80
2023/04/23 07:18:21;;;;;;;3.70;3.22;;;;;;;-143.29;100.00;62188.47;4897754;29;20025;-80
2023/04/23 07:20:47;;;;;;;3.60;3.15;;;;;;;-143.29;100.00;62188.47;4897642;29;20047;-80
2023/04/23 07:23:12;;;;;;;3.80;3.20;;;;;;;-143.29;100.00;62188.47;4897556;29;20035;-80
2023/04/23 07:25:38;;;;;;;4.22;3.70;;;;;;;-143.29;100.00;62188.47;4897585;29;20108;-80
2023/04/23 07:28:03;;;;;;;4.00;3.28;;;;;;;-143.29;100.00;62188.47;4897533;29;20036;-80
2023/04/23 07:30:29;;;;;;;2.65;2.20;;;;;;;-143.29;100.00;62188.47;4897470;29;20032;-80
2023/04/23 07:32:55;;;;;;;3.97;3.58;;;;;;;-143.29;100.00;62188.47;4897318;29;20028;-80
2023/04/23 07:35:20;;;;;;;5.82;3.67;;;;;;;-143.29;100.00;62188.47;4897637;29;20084;-80
2023/04/23 07:37:46;;;;;;;8.50;3.63;;;;;;;-143.29;100.00;62188.47;4897266;29;20036;-80
2023/04/23 07:40:11;;;;;;;4.72;3.85;;;;;;;-143.29;100.00;62188.47;4897231;29;20364;-80
2023/04/23 07:42:38;;;;;;;3.10;2.70;;;;;;;-143.29;100.00;62188.47;4897255;29;20436;-80
2023/04/23 07:45:04;;;;;;;4.70;3.85;;;;;;;-143.29;100.00;62188.47;4897312;29;20024;-80
2023/04/23 07:47:30;;;;;;;4.40;2.63;;;;;;;-143.29;100.00;62188.47;4897161;29;20029;-80
2023/04/23 07:49:55;;;;;;;1.83;1.67;;;;;;;-143.29;100.00;62188.47;4897114;29;20095;-80
2023/04/23 07:52:20;;;;;;;3.58;2.40;;;;;;;-143.29;100.00;62188.47;4897298;29;20033;-80
2023/04/23 07:54:46;;;;;;;2.83;1.85;;;;;;;-143.29;100.00;62188.47;4897091;29;20056;-80
2023/04/23 07:57:11;;;;;;;5.38;2.67;;;;;;;-143.29;100.00;62188.47;4896853;29;20025;-80
2023/04/23 07:59:40;;;;;;;2.92;1.77;;;;;;;-143.29;100.00;62188.47;4896872;29;20028;-80
2023/04/23 08:02:05;;;;;;;2.47;2.28;;;;;;;-143.29;100.00;62188.47;4896999;29;20088;-82
2023/04/23 08:04:31;;;;;;;2.72;2.15;;;;;;;-143.29;100.00;62188.47;4896999;29;20036;-79
2023/04/23 08:06:57;;;;;;;3.08;2.20;;;;;;;-143.29;100.00;62188.47;4896872;29;20036;-79
2023/04/23 08:09:23;;;;;;;2.03;1.83;;;;;;;-143.29;100.00;62188.47;4895494;29;20024;-79
2023/04/23 08:11:48;;;;;;;2.20;2.00;;;;;;;-143.29;100.00;62188.47;4896862;29;20029;-79
2023/04/23 08:14:13;;;;;;;3.22;1.85;;;;;;;-143.29;100.00;62188.47;4896767;29;20544;-79
2023/04/23 08:16:39;;;;;;;1.98;1.42;;;;;;;-143.29;100.00;62188.47;4895812;29;20031;-79
2023/04/23 08:19:05;;;;;;;2.33;1.75;;;;;;;-143.29;100.00;62188.47;4896745;29;20029;-79
2023/04/23 08:21:33;;;;;;;4.13;1.95;;;;;;;-143.29;100.00;62188.47;4896775;29;20051;-79
2023/04/23 08:23:58;;;;;;;2.30;1.58;;;;;;;-143.29;100.00;62188.47;4896782;29;20658;-79
2023/04/23 08:26:24;;;;;;;1.75;1.60;;;;;;;-143.29;100.00;62188.47;4897125;29;20196;-79
2023/04/23 08:28:49;;;;;;;1.95;1.38;;;;;;;-143.29;100.00;62188.47;4896817;29;20029;-80
2023/04/23 08:31:16;;;;;;;1.80;1.65;;;;;;;-143.29;100.00;62188.47;4896702;29;20040;-79
2023/04/23 08:33:41;;;;;;;1.20;1.10;;;;;;;-143.29;100.00;62188.47;4896687;29;20021;-79
2023/04/23 08:36:07;;;;;;;1.38;1.20;;;;;;;-143.29;100.00;62188.47;4896605;29;20035;-79
2023/04/23 08:38:32;;;;;;;1.80;1.25;;;;;;;-143.29;100.00;62188.47;4896555;29;20025;-79
2023/04/23 08:40:58;;;;;;;1.70;1.10;;;;;;;-143.29;100.00;62188.47;4896448;29;20036;-79
2023/04/23 08:43:32;;;;;;;1.50;1.05;;;;;;;-143.29;100.00;62188.47;4896762;29;20487;-79
2023/04/23 08:46:03;;;;;;;1.10;0.90;;;;;;;-143.29;100.00;62188.47;4896473;29;20024;-79
2023/04/23 08:48:29;;;;;;;1.38;1.20;;;;;;;-143.29;100.00;62188.47;4896505;29;20036;-79
2023/04/23 08:50:58;;;;;;;1.50;1.27;;;;;;;-143.29;100.00;62188.47;4896534;29;20481;-79
2023/04/23 08:53:28;;;;;;;1.95;1.27;;;;;;;-143.29;100.00;62188.47;4896489;29;20039;-79
2023/04/23 08:55:55;;;;;;;1.27;1.17;;;;;;;-143.29;100.00;62188.47;4896608;29;20025;-79
2023/04/23 08:58:21;;;;;;;2.25;1.30;;;;;;;-143.29;100.00;62188.47;4896511;29;20116;-79
2023/04/23 09:00:47;;;;;;;1.35;1.17;;;;;;;-143.29;100.00;62188.47;4899975;29;20164;-79
2023/04/23 09:03:15;;;;;;;1.63;1.00;;;;;;;-143.29;100.00;62188.47;4900066;29;20020;-79
2023/04/23 09:05:41;;;;;;;1.30;1.10;;;;;;;-143.29;100.00;62188.47;4899856;29;20492;-79
2023/04/23 09:08:07;;;;;;;1.50;1.20;;;;;;;-143.29;100.00;62188.47;4900080;29;20024;-79
2023/04/23 09:10:37;;;;;;;1.30;0.93;;;;;;;-143.29;100.00;62188.47;4900069;29;20029;-79
2023/04/23 09:13:03;;;;;;;1.50;1.13;;;;;;;-143.29;100.00;62188.47;4899871;29;20036;-79
2023/04/23 09:15:28;;;;;;;1.35;1.25;;;;;;;-143.29;100.00;62188.47;4899903;29;20029;-79
2023/04/23 09:17:54;;;;;;;2.15;1.00;;;;;;;-143.29;100.00;62188.47;4899891;29;20024;-79
2023/04/23 09:20:19;;;;;;;1.35;1.08;;;;;;;-143.29;100.00;62188.47;4899794;29;20132;-79
2023/04/23 09:22:51;;;;;;;1.13;0.90;;;;;;;-143.29;100.00;62188.47;4899919;29;20447;-79
2023/04/23 09:25:20;;;;;;;;;;;;;;;-143.29;100.00;62188.47;4900379;29;20467;-79
2023/04/23 09:27:47;;;;;;;0.90;0.80;;;;;;;-143.29;100.00;62188.47;4899699;29;20508;-79
2023/04/23 09:30:13;;;;;;;1.17;1.08;;;;;;;-143.29;100.00;62188.47;4899699;29;20036;-79
2023/04/23 09:32:41;;;;;;;1.35;0.93;;;;;;;-143.29;100.00;62188.47;4899359;29;20029;-79
2023/04/23 09:35:08;;;;;;;1.38;0.93;;;;;;;-143.29;100.00;62188.47;4899628;29;20020;-79
2023/04/23 09:37:34;;;;;;;0.98;0.88;;;;;;;-143.29;100.00;62188.47;4899500;29;20107;-79
2023/04/23 09:40:08;;;;;;;1.80;0.90;;;;;;;-143.29;100.00;62188.47;4899450;29;20112;-79
2023/04/23 09:42:34;;;;;;;1.13;0.82;;;;;;;-143.29;100.00;62188.47;4899405;29;20560;-79
2023/04/23 09:45:03;;;;;;;1.17;0.82;;;;;;;-143.29;100.00;62188.47;4899386;29;20498;-79
2023/04/23 09:47:33;;;;;;;0.98;0.80;;;;;;;-143.29;100.00;62188.47;4899449;29;20259;-82
2023/04/23 09:49:58;;;;;;;1.20;0.70;;;;;;;-143.29;100.00;62188.47;4899371;29;20084;-82
2023/04/23 09:52:24;;;;;;;0.68;0.68;;;;;;;-143.29;100.00;62188.47;4899128;29;20041;-82
2023/04/23 09:54:49;;;;;;;1.15;0.60;;;;;;;-143.29;100.00;62188.47;4899259;29;20025;-82
2023/04/23 09:57:15;;;;;;;0.70;0.70;;;;;;;-143.29;100.00;62188.47;4899083;29;20482;-82
2023/04/23 09:59:41;;;;;;;0.90;0.50;;;;;;;-143.29;100.00;62188.47;4899335;29;20024;-82
2023/04/23 10:02:08;;;;;;;1.00;0.70;;;;;;;-143.29;100.00;62188.47;4899113;29;20436;-82
2023/04/23 10:04:34;;;;;;;0.80;0.77;;;;;;;-143.29;100.00;62188.47;4899414;29;20383;-82
2023/04/23 10:07:02;;;;;;;0.57;0.50;;;;;;;-143.29;100.00;62188.47;4899120;29;20028;-82
2023/04/23 10:09:28;;;;;;;0.75;0.68;;;;;;;-143.29;100.00;62188.47;4898942;29;20028;-82
2023/04/23 10:11:58;;;;;;;0.60;0.60;;;;;;;-143.29;100.00;62188.47;4897686;29;20371;-82
2023/04/23 10:14:25;;;;;;;1.00;0.60;;;;;;;-143.29;100.00;62188.47;4898792;29;20373;-82
2023/04/23 10:16:52;;;;;;;0.85;0.80;;;;;;;-143.29;100.00;62188.47;4898894;29;20028;-82
2023/04/23 10:19:22;;;;;;;0.50;0.50;;;;;;;-143.29;100.00;62188.47;4898825;29;20020;-82
2023/04/23 10:22:03;;;;;;;0.82;0.77;;;;;;;-143.29;100.00;62188.47;4898670;29;20041;-82
2023/04/23 10:24:32;;;;;;;0.67;0.67;;;;;;;-143.29;100.00;62188.47;4898651;29;20476;-82
2023/04/23 10:27:03;;;;;;;1.00;0.70;;;;;;;-143.29;100.00;62188.47;4898795;29;20318;-82
2023/04/23 10:29:33;;;;;;;0.93;0.60;;;;;;;-143.29;100.00;62188.47;4898838;29;20028;-82
2023/04/23 10:32:00;;;;;;;0.50;0.45;;;;;;;-143.29;100.00;62188.47;4898949;29;20321;-82
2023/04/23 10:34:26;;;;;;;0.63;0.45;;;;;;;-143.29;100.00;62188.47;4898522;29;20356;-82
2023/04/23 10:36:52;;;;;;;0.82;0.63;;;;;;;-143.29;100.00;62188.47;4898428;29;20104;-82
2023/04/23 10:39:20;;;;;;;0.90;0.60;;;;;;;-143.29;100.00;62188.47;4898221;29;20157;-82
2023/04/23 10:41:47;;;;;;;1.00;0.35;;;;;;;-143.29;100.00;62188.47;4898338;29;20036;-80
2023/04/23 10:44:15;;;;;;;0.47;0.45;;;;;;;-143.29;100.00;62188.47;4898544;29;20028;-79
2023/04/23 10:46:56;;;;;;;0.60;0.50;;;;;;;-143.29;100.00;62188.47;4898356;29;20029;-79
2023/04/23 10:49:23;;;;;;;0.90;0.50;;;;;;;-143.29;100.00;62188.47;4898318;29;20033;-79
2023/04/23 10:51:58;;;;;;;0.68;0.50;;;;;;;-143.29;100.00;62188.47;4898133;29;20111;-79
2023/04/23 10:54:28;;;;;;;1.15;0.50;;;;;;;-143.29;100.00;62188.47;4898398;29;20033;-79
2023/04/23 10:56:58;;;;;;;0.95;0.60;;;;;;;-143.29;100.00;62188.47;4897921;29;20107;-79
2023/04/23 10:59:24;;;;;;;1.10;0.60;;;;;;;-143.29;100.00;62188.47;4898145;29;20080;-79
2023/04/23 11:01:49;;;;;;;1.15;0.63;;;;;;;-143.29;100.00;62188.47;4898033;29;20024;-79
2023/04/23 11:04:23;;;;;;;0.50;0.50;;;;;;;-143.29;100.00;62188.47;4897986;29;20063;-79